createdAt,value
2023-02-05T00:02:29.285Z,8.63
2023-02-05T00:07:30.612Z,9.10
2023-02-05T00:12:32.542Z,7.72
2023-02-05T00:17:36.023Z,6.80
2023-02-05T00:22:37.325Z,12.38
2023-02-05T00:27:38.706Z,6.82
2023-02-05T00:32:40.073Z,11.38
2023-02-05T00:37:41.424Z,7.22
2023-02-05T00:42:42.844Z,12.35
2023-02-05T00:47:44.165Z,4.72
2023-02-05T00:52:45.488Z,7.40
2023-02-05T00:57:46.872Z,6.75
2023-02-05T01:02:48.268Z,5.75
2023-02-05T01:07:50.057Z,8.38
2023-02-05T01:12:51.668Z,6.82
2023-02-05T01:17:53.002Z,7.38
2023-02-05T01:22:55.152Z,8.88
2023-02-05T01:27:56.547Z,5.65
2023-02-05T01:32:57.908Z,11.10
2023-02-05T01:37:59.252Z,5.72
2023-02-05T01:43:00.556Z,8.20
2023-02-05T01:48:03.913Z,7.15
2023-02-05T01:53:08.676Z,6.88
2023-02-05T01:58:11.201Z,6.63
2023-02-05T02:03:14.485Z,7.18
2023-02-05T02:08:15.942Z,11.40
2023-02-05T02:13:20.396Z,5.13
2023-02-05T02:18:28.374Z,7.13
2023-02-05T02:23:45.117Z,6.53
2023-02-05T02:28:51.500Z,7.57
2023-02-05T02:34:11.216Z,5.47
2023-02-05T02:39:22.071Z,6.32
2023-02-05T02:44:32.635Z,6.75
2023-02-05T02:49:39.168Z,8.07
2023-02-05T02:54:43.493Z,7.88
2023-02-05T02:59:48.409Z,8.27
2023-02-05T03:04:57.204Z,10.60
2023-02-05T03:10:07.542Z,10.00
2023-02-05T03:15:10.053Z,6.93
2023-02-05T03:20:16.957Z,6.32
2023-02-05T03:25:21.188Z,5.00
2023-02-05T03:30:29.545Z,8.02
2023-02-05T03:35:44.415Z,6.03
2023-02-05T03:40:55.348Z,8.50
2023-02-05T03:46:48.682Z,6.78
2023-02-05T03:51:58.112Z,6.18
2023-02-05T03:57:18.428Z,4.95
2023-02-05T04:02:22.081Z,7.32
2023-02-05T04:07:23.483Z,9.73
2023-02-05T04:12:24.810Z,7.40
2023-02-05T04:17:26.162Z,5.28
2023-02-05T04:22:27.485Z,6.60
2023-02-05T04:27:28.888Z,6.78
2023-02-05T04:32:30.217Z,6.72
2023-02-05T04:37:31.580Z,8.30
2023-02-05T04:42:32.936Z,10.57
2023-02-05T04:47:34.731Z,9.10
2023-02-05T04:52:36.246Z,5.78
2023-02-05T04:57:37.553Z,10.00
2023-02-05T05:02:38.934Z,4.22
2023-02-05T05:07:40.555Z,5.28
2023-02-05T05:12:41.865Z,7.88
2023-02-05T05:17:43.182Z,7.10
2023-02-05T05:22:44.506Z,5.50
2023-02-05T05:27:45.840Z,5.75
2023-02-05T05:32:47.176Z,9.00
2023-02-05T05:37:48.566Z,6.10
2023-02-05T05:43:08.540Z,4.40
2023-02-05T05:48:09.893Z,7.65
2023-02-05T05:53:11.193Z,6.30
2023-02-05T05:58:12.842Z,5.90
2023-02-05T06:03:14.207Z,7.35
2023-02-05T06:08:16.245Z,9.07
2023-02-05T06:13:17.596Z,7.57
2023-02-05T06:18:19.099Z,6.40
2023-02-05T06:23:20.435Z,10.18
2023-02-05T06:28:21.772Z,8.35
2023-02-05T06:33:23.155Z,5.57
2023-02-05T06:38:24.535Z,6.90
2023-02-05T06:43:25.925Z,12.98
2023-02-05T06:48:27.224Z,8.45
2023-02-05T06:53:28.528Z,11.05
2023-02-05T06:58:29.887Z,10.38
2023-02-05T07:03:31.262Z,11.60
2023-02-05T07:08:32.950Z,9.38
2023-02-05T07:13:34.404Z,13.00
2023-02-05T07:18:35.806Z,11.68
2023-02-05T07:23:37.229Z,11.50
2023-02-05T07:28:39.114Z,9.65
2023-02-05T07:33:40.880Z,14.68
2023-02-05T07:38:43.581Z,10.98
2023-02-05T07:43:45.008Z,10.52
2023-02-05T07:48:46.351Z,12.02
2023-02-05T07:53:47.809Z,9.77
2023-02-05T07:58:49.196Z,10.38
2023-02-05T08:03:50.671Z,15.90
2023-02-05T08:08:52.256Z,17.55
2023-02-05T08:13:53.579Z,14.35
2023-02-05T08:18:54.897Z,13.73
2023-02-05T08:23:58.387Z,15.65
2023-02-05T08:28:59.834Z,16.48
2023-02-05T08:34:01.713Z,16.77
2023-02-05T08:39:03.982Z,15.20
2023-02-05T08:44:05.549Z,10.57
2023-02-05T08:49:06.883Z,14.35
2023-02-05T08:54:12.870Z,15.82
2023-02-05T08:59:14.300Z,26.70
2023-02-05T09:04:21.993Z,26.88
2023-02-05T09:14:24.623Z,27.10
2023-02-05T09:19:25.935Z,26.92
2023-02-05T09:24:27.424Z,30.00
2023-02-05T09:29:29.720Z,33.08
2023-02-05T09:34:32.252Z,28.02
2023-02-05T09:45:07.549Z,34.70
2023-02-05T09:50:31.703Z,37.90
2023-02-05T09:55:37.330Z,33.80
2023-02-05T12:58:10.622Z,27.35
2023-02-05T13:40:24.947Z,17.73
2023-02-05T13:45:45.056Z,19.42
2023-02-05T14:17:28.927Z,15.90
2023-02-05T14:22:42.525Z,15.07
2023-02-05T14:27:49.107Z,17.02
2023-02-05T14:32:50.389Z,13.93
2023-02-05T14:37:54.140Z,14.93
2023-02-05T14:43:15.910Z,14.68
2023-02-05T14:48:24.776Z,16.10
2023-02-05T14:53:26.660Z,16.55
2023-02-05T14:58:44.822Z,14.77
2023-02-05T15:03:46.266Z,11.65
2023-02-05T15:09:13.529Z,13.43
2023-02-05T15:14:41.322Z,14.80
2023-02-05T15:19:48.417Z,13.48
2023-02-05T15:24:53.467Z,13.73
2023-02-05T15:29:57.426Z,15.55
2023-02-05T15:35:04.871Z,14.30
2023-02-05T15:40:19.978Z,11.23
2023-02-05T15:45:27.479Z,12.43
2023-02-05T15:50:30.738Z,11.75
2023-02-05T15:55:33.482Z,13.32
2023-02-05T16:00:39.649Z,12.38
2023-02-05T16:05:51.810Z,14.65
2023-02-05T16:10:58.530Z,18.20
2023-02-05T16:16:05.861Z,14.57
2023-02-05T16:21:20.531Z,13.77
2023-02-05T16:26:36.510Z,14.35
2023-02-05T16:31:38.082Z,12.10
2023-02-05T16:36:43.126Z,10.70
2023-02-05T16:41:45.034Z,10.40
2023-02-05T16:47:06.253Z,9.63
2023-02-05T16:52:28.163Z,12.68
2023-02-05T16:57:36.962Z,15.15
2023-02-05T17:02:41.518Z,13.07
2023-02-05T17:07:42.918Z,12.75
2023-02-05T17:12:54.354Z,17.58
2023-02-05T17:18:29.038Z,16.58
2023-02-05T17:23:30.382Z,13.95
2023-02-05T17:28:34.282Z,14.98
2023-02-05T17:33:35.603Z,15.18
2023-02-05T17:38:36.968Z,14.27
2023-02-05T17:43:41.184Z,14.18
2023-02-05T17:48:44.448Z,15.27
2023-02-05T17:53:45.951Z,14.65
2023-02-05T17:58:48.644Z,15.63
2023-02-05T18:03:50.047Z,17.05
2023-02-05T18:08:51.386Z,14.00
2023-02-05T18:13:52.757Z,16.38
2023-02-05T18:18:54.118Z,17.00
2023-02-05T18:23:55.471Z,17.13
2023-02-05T18:28:56.831Z,15.88
2023-02-05T18:33:58.199Z,19.67
2023-02-05T18:38:59.706Z,32.95
2023-02-05T18:44:01.080Z,48.95
2023-02-05T18:49:02.458Z,22.20
2023-02-05T18:54:06.515Z,21.17
2023-02-05T18:59:09.540Z,14.40
2023-02-05T19:04:13.588Z,17.52
2023-02-05T19:09:15.016Z,22.15
2023-02-05T19:14:18.186Z,20.08
2023-02-05T19:19:23.085Z,17.80
2023-02-05T19:24:24.449Z,17.80
2023-02-05T19:29:27.032Z,19.80
2023-02-05T19:34:28.869Z,14.15
2023-02-05T19:39:30.222Z,14.70
2023-02-05T19:44:32.125Z,16.02
2023-02-05T19:49:33.528Z,14.95
2023-02-05T19:54:35.598Z,11.23
2023-02-05T19:59:37.371Z,11.18
2023-02-05T20:04:40.580Z,12.60
2023-02-05T20:09:42.066Z,14.43
2023-02-05T20:14:43.438Z,13.35
2023-02-05T20:19:44.793Z,12.38
2023-02-05T20:24:46.151Z,12.80
2023-02-05T20:30:05.885Z,13.75
2023-02-05T20:35:07.515Z,14.45
2023-02-05T20:40:09.429Z,12.40
2023-02-05T20:45:10.844Z,15.27
2023-02-05T20:50:12.201Z,16.05
2023-02-05T20:55:13.844Z,16.63
2023-02-05T21:00:15.292Z,15.10
2023-02-05T21:05:16.653Z,14.75
2023-02-05T21:10:19.306Z,15.02
2023-02-05T21:15:20.648Z,17.77
2023-02-05T21:20:21.985Z,16.80
2023-02-05T21:25:23.308Z,22.20
2023-02-05T21:30:24.701Z,19.02
2023-02-05T21:35:27.302Z,18.13
2023-02-05T21:40:28.597Z,18.30
2023-02-05T21:45:30.048Z,19.27
2023-02-05T21:50:31.469Z,17.02
2023-02-05T21:55:33.712Z,21.60
2023-02-05T22:00:35.306Z,18.90
2023-02-05T22:05:36.834Z,18.48
2023-02-05T22:10:38.178Z,18.52
2023-02-05T22:15:39.555Z,18.98
2023-02-05T22:20:40.880Z,18.40
2023-02-05T22:25:46.790Z,17.73
2023-02-05T22:30:48.258Z,21.73
2023-02-05T22:35:52.631Z,20.55
2023-02-05T22:40:53.958Z,18.70
2023-02-05T22:45:55.351Z,19.35
2023-02-05T22:50:56.757Z,20.92
2023-02-05T22:56:07.581Z,21.00
2023-02-05T23:01:10.692Z,23.58
2023-02-05T23:06:15.026Z,24.48
2023-02-05T23:11:16.572Z,21.95
2023-02-05T23:16:24.036Z,24.55
2023-02-05T23:21:27.742Z,26.77
2023-02-05T23:26:33.174Z,27.35
2023-02-05T23:31:35.194Z,21.00
2023-02-05T23:36:36.716Z,23.58
2023-02-05T23:41:39.540Z,21.10
2023-02-05T23:46:43.101Z,23.13
2023-02-05T23:51:45.444Z,21.80
2023-02-05T23:56:47.104Z,22.15
